sensor_id;sensor_type;location;lat;lon;timestamp;pressure;altitude;pressure_sealevel;temperature;humidity
63281;BME280;49406;51.044;3.766;2023-12-22T00:00:56;100827.69;;;10.30;100.00
63281;BME280;49406;51.044;3.766;2023-12-22T00:03:31;100823.45;;;10.09;100.00
63281;BME280;49406;51.044;3.766;2023-12-22T00:06:08;100818.38;;;9.92;100.00
63281;BME280;49406;51.044;3.766;2023-12-22T00:08:46;100826.33;;;9.84;100.00
63281;BME280;49406;51.044;3.766;2023-12-22T00:11:22;100825.77;;;9.80;100.00
63281;BME280;49406;51.044;3.766;2023-12-22T00:13:56;100810.19;;;9.76;100.00
63281;BME280;49406;51.044;3.766;2023-12-22T00:16:32;100810.67;;;9.73;100.00
63281;BME280;49406;51.044;3.766;2023-12-22T00:19:07;100820.16;;;9.62;100.00
63281;BME280;49406;51.044;3.766;2023-12-22T00:21:42;100820.45;;;9.59;100.00
63281;BME280;49406;51.044;3.766;2023-12-22T00:24:17;100826.58;;;9.60;100.00
63281;BME280;49406;51.044;3.766;2023-12-22T00:26:52;100828.08;;;9.70;100.00
63281;BME280;49406;51.044;3.766;2023-12-22T00:29:27;100827.27;;;9.74;100.00
63281;BME280;49406;51.044;3.766;2023-12-22T00:32:01;100827.52;;;9.80;100.00
63281;BME280;49406;51.044;3.766;2023-12-22T00:34:36;100821.44;;;9.84;100.00
63281;BME280;49406;51.044;3.766;2023-12-22T00:37:11;100824.36;;;9.95;100.00
63281;BME280;49406;51.044;3.766;2023-12-22T00:39:45;100821.14;;;10.05;100.00
63281;BME280;49406;51.044;3.766;2023-12-22T00:42:20;100832.60;;;10.17;100.00
63281;BME280;49406;51.044;3.766;2023-12-22T00:44:55;100823.10;;;10.24;100.00
63281;BME280;49406;51.044;3.766;2023-12-22T00:47:29;100816.90;;;10.34;100.00
63281;BME280;49406;51.044;3.766;2023-12-22T00:50:05;100826.06;;;10.42;100.00
63281;BME280;49406;51.044;3.766;2023-12-22T00:52:41;100810.52;;;10.42;100.00
63281;BME280;49406;51.044;3.766;2023-12-22T00:55:15;100820.17;;;10.50;100.00
63281;BME280;49406;51.044;3.766;2023-12-22T00:57:50;100817.55;;;10.49;100.00
63281;BME280;49406;51.044;3.766;2023-12-22T01:00:24;100804.10;;;10.51;100.00
63281;BME280;49406;51.044;3.766;2023-12-22T01:02:59;100810.40;;;10.53;100.00
63281;BME280;49406;51.044;3.766;2023-12-22T01:05:34;100823.35;;;10.54;100.00
63281;BME280;49406;51.044;3.766;2023-12-22T01:08:08;100820.02;;;10.52;100.00
63281;BME280;49406;51.044;3.766;2023-12-22T01:10:43;100826.23;;;10.61;100.00
63281;BME280;49406;51.044;3.766;2023-12-22T01:13:17;100828.32;;;10.62;100.00
63281;BME280;49406;51.044;3.766;2023-12-22T01:15:52;100827.75;;;10.59;100.00
63281;BME280;49406;51.044;3.766;2023-12-22T01:18:27;100823.69;;;10.52;100.00
63281;BME280;49406;51.044;3.766;2023-12-22T01:21:03;100835.27;;;10.56;100.00
63281;BME280;49406;51.044;3.766;2023-12-22T01:23:38;100841.78;;;10.62;100.00
63281;BME280;49406;51.044;3.766;2023-12-22T01:26:12;100842.86;;;10.67;100.00
63281;BME280;49406;51.044;3.766;2023-12-22T01:28:47;100849.15;;;10.67;100.00
63281;BME280;49406;51.044;3.766;2023-12-22T01:31:21;100844.98;;;10.73;100.00
63281;BME280;49406;51.044;3.766;2023-12-22T01:33:56;100836.63;;;10.76;100.00
63281;BME280;49406;51.044;3.766;2023-12-22T01:36:30;100849.77;;;10.77;100.00
63281;BME280;49406;51.044;3.766;2023-12-22T01:39:05;100849.90;;;10.74;100.00
63281;BME280;49406;51.044;3.766;2023-12-22T01:41:39;100848.70;;;10.75;100.00
63281;BME280;49406;51.044;3.766;2023-12-22T01:44:14;100848.40;;;10.82;100.00
63281;BME280;49406;51.044;3.766;2023-12-22T01:46:48;100849.81;;;10.85;100.00
63281;BME280;49406;51.044;3.766;2023-12-22T01:49:24;100855.58;;;10.83;100.00
63281;BME280;49406;51.044;3.766;2023-12-22T01:51:59;100857.16;;;10.86;100.00
63281;BME280;49406;51.044;3.766;2023-12-22T01:54:34;100851.10;;;10.93;100.00
63281;BME280;49406;51.044;3.766;2023-12-22T01:57:08;100845.67;;;10.91;100.00
63281;BME280;49406;51.044;3.766;2023-12-22T01:59:44;100853.16;;;10.89;100.00
63281;BME280;49406;51.044;3.766;2023-12-22T02:02:19;100869.60;;;10.88;100.00
63281;BME280;49406;51.044;3.766;2023-12-22T02:04:53;100872.02;;;10.84;100.00
63281;BME280;49406;51.044;3.766;2023-12-22T02:07:29;100858.92;;;10.86;100.00
63281;BME280;49406;51.044;3.766;2023-12-22T02:10:04;100866.55;;;10.78;100.00
63281;BME280;49406;51.044;3.766;2023-12-22T02:12:43;100880.81;;;10.69;100.00
63281;BME280;49406;51.044;3.766;2023-12-22T02:15:18;100882.71;;;10.66;100.00
63281;BME280;49406;51.044;3.766;2023-12-22T02:17:58;100887.14;;;10.72;100.00
63281;BME280;49406;51.044;3.766;2023-12-22T02:20:34;100885.93;;;10.74;100.00
63281;BME280;49406;51.044;3.766;2023-12-22T02:23:09;100889.00;;;10.64;100.00
63281;BME280;49406;51.044;3.766;2023-12-22T02:25:43;100898.43;;;10.62;100.00
63281;BME280;49406;51.044;3.766;2023-12-22T02:28:21;100899.47;;;10.62;100.00
63281;BME280;49406;51.044;3.766;2023-12-22T02:31:03;100901.08;;;10.66;100.00
63281;BME280;49406;51.044;3.766;2023-12-22T02:33:40;100900.02;;;10.66;100.00
63281;BME280;49406;51.044;3.766;2023-12-22T02:36:16;100897.17;;;10.60;100.00
63281;BME280;49406;51.044;3.766;2023-12-22T02:38:53;100896.98;;;10.58;100.00
63281;BME280;49406;51.044;3.766;2023-12-22T02:41:29;100905.73;;;10.60;100.00
63281;BME280;49406;51.044;3.766;2023-12-22T02:44:04;100897.34;;;10.59;100.00
63281;BME280;49406;51.044;3.766;2023-12-22T02:46:39;100899.02;;;10.51;100.00
63281;BME280;49406;51.044;3.766;2023-12-22T02:49:15;100897.92;;;10.45;100.00
63281;BME280;49406;51.044;3.766;2023-12-22T02:51:51;100893.02;;;10.44;100.00
63281;BME280;49406;51.044;3.766;2023-12-22T02:54:26;100891.56;;;10.39;100.00
63281;BME280;49406;51.044;3.766;2023-12-22T02:57:03;100893.05;;;10.29;100.00
63281;BME280;49406;51.044;3.766;2023-12-22T02:59:39;100887.14;;;10.19;100.00
63281;BME280;49406;51.044;3.766;2023-12-22T03:02:15;100883.17;;;10.09;100.00
63281;BME280;49406;51.044;3.766;2023-12-22T03:04:49;100876.61;;;9.99;100.00
63281;BME280;49406;51.044;3.766;2023-12-22T03:07:24;100872.35;;;9.91;100.00
63281;BME280;49406;51.044;3.766;2023-12-22T03:09:59;100869.01;;;9.90;100.00
63281;BME280;49406;51.044;3.766;2023-12-22T03:12:33;100863.20;;;9.87;100.00
63281;BME280;49406;51.044;3.766;2023-12-22T03:15:10;100854.07;;;9.81;100.00
63281;BME280;49406;51.044;3.766;2023-12-22T03:17:45;100863.83;;;9.80;100.00
63281;BME280;49406;51.044;3.766;2023-12-22T03:20:19;100874.45;;;9.77;100.00
63281;BME280;49406;51.044;3.766;2023-12-22T03:22:54;100871.48;;;9.76;100.00
63281;BME280;49406;51.044;3.766;2023-12-22T03:25:29;100876.39;;;9.80;100.00
63281;BME280;49406;51.044;3.766;2023-12-22T03:28:05;100879.85;;;9.76;100.00
63281;BME280;49406;51.044;3.766;2023-12-22T03:30:43;100879.14;;;9.74;100.00
63281;BME280;49406;51.044;3.766;2023-12-22T03:33:18;100880.64;;;9.71;100.00
63281;BME280;49406;51.044;3.766;2023-12-22T03:35:53;100882.36;;;9.69;100.00
63281;BME280;49406;51.044;3.766;2023-12-22T03:38:28;100860.09;;;9.59;100.00
63281;BME280;49406;51.044;3.766;2023-12-22T03:41:05;100851.04;;;9.61;100.00
63281;BME280;49406;51.044;3.766;2023-12-22T03:43:39;100850.30;;;9.58;100.00
63281;BME280;49406;51.044;3.766;2023-12-22T03:46:14;100847.98;;;9.56;100.00
63281;BME280;49406;51.044;3.766;2023-12-22T03:48:49;100849.41;;;9.57;100.00
63281;BME280;49406;51.044;3.766;2023-12-22T03:51:23;100841.75;;;9.58;100.00
63281;BME280;49406;51.044;3.766;2023-12-22T03:53:58;100843.98;;;9.57;100.00
63281;BME280;49406;51.044;3.766;2023-12-22T03:56:33;100841.17;;;9.55;100.00
63281;BME280;49406;51.044;3.766;2023-12-22T03:59:07;100832.25;;;9.54;100.00
63281;BME280;49406;51.044;3.766;2023-12-22T04:01:42;100831.55;;;9.54;100.00
63281;BME280;49406;51.044;3.766;2023-12-22T04:04:16;100841.75;;;9.58;100.00
63281;BME280;49406;51.044;3.766;2023-12-22T04:06:51;100844.78;;;9.64;100.00
63281;BME280;49406;51.044;3.766;2023-12-22T04:09:26;100847.48;;;9.72;100.00
63281;BME280;49406;51.044;3.766;2023-12-22T04:12:00;100843.35;;;9.75;100.00
63281;BME280;49406;51.044;3.766;2023-12-22T04:14:35;100836.98;;;9.84;100.00
63281;BME280;49406;51.044;3.766;2023-12-22T04:17:10;100831.14;;;9.93;100.00
63281;BME280;49406;51.044;3.766;2023-12-22T04:19:44;100834.15;;;9.96;100.00
63281;BME280;49406;51.044;3.766;2023-12-22T04:22:19;100840.87;;;10.06;100.00
63281;BME280;49406;51.044;3.766;2023-12-22T04:24:53;100832.36;;;10.08;100.00
63281;BME280;49406;51.044;3.766;2023-12-22T04:27:28;100827.65;;;10.09;100.00
63281;BME280;49406;51.044;3.766;2023-12-22T04:30:02;100831.88;;;10.15;100.00
63281;BME280;49406;51.044;3.766;2023-12-22T04:32:37;100827.91;;;10.19;100.00
63281;BME280;49406;51.044;3.766;2023-12-22T04:35:12;100831.05;;;10.19;100.00
63281;BME280;49406;51.044;3.766;2023-12-22T04:37:46;100833.32;;;10.18;100.00
63281;BME280;49406;51.044;3.766;2023-12-22T04:40:21;100840.25;;;10.27;100.00
63281;BME280;49406;51.044;3.766;2023-12-22T04:42:55;100842.73;;;10.30;100.00
63281;BME280;49406;51.044;3.766;2023-12-22T04:45:30;100837.50;;;10.33;100.00
63281;BME280;49406;51.044;3.766;2023-12-22T04:48:06;100840.10;;;10.29;100.00
63281;BME280;49406;51.044;3.766;2023-12-22T04:50:41;100841.65;;;10.26;100.00
63281;BME280;49406;51.044;3.766;2023-12-22T04:53:15;100842.05;;;10.32;100.00
63281;BME280;49406;51.044;3.766;2023-12-22T04:55:51;100845.59;;;10.39;100.00
63281;BME280;49406;51.044;3.766;2023-12-22T04:58:25;100844.75;;;10.41;100.00
63281;BME280;49406;51.044;3.766;2023-12-22T05:01:00;100843.52;;;10.41;100.00
63281;BME280;49406;51.044;3.766;2023-12-22T05:03:34;100837.38;;;10.39;100.00
63281;BME280;49406;51.044;3.766;2023-12-22T05:06:09;100835.19;;;10.47;100.00
63281;BME280;49406;51.044;3.766;2023-12-22T05:08:43;100814.58;;;10.49;100.00
63281;BME280;49406;51.044;3.766;2023-12-22T05:11:18;100816.50;;;10.49;100.00
63281;BME280;49406;51.044;3.766;2023-12-22T05:13:52;100824.71;;;10.49;100.00
63281;BME280;49406;51.044;3.766;2023-12-22T05:16:25;100829.13;;;10.54;100.00
63281;BME280;49406;51.044;3.766;2023-12-22T05:19:01;100836.19;;;10.63;100.00
63281;BME280;49406;51.044;3.766;2023-12-22T05:21:36;100849.18;;;10.72;100.00
63281;BME280;49406;51.044;3.766;2023-12-22T05:24:10;100834.83;;;10.69;100.00
63281;BME280;49406;51.044;3.766;2023-12-22T05:26:45;100829.58;;;10.68;100.00
63281;BME280;49406;51.044;3.766;2023-12-22T05:29:19;100826.52;;;10.78;100.00
63281;BME280;49406;51.044;3.766;2023-12-22T05:31:54;100834.92;;;10.79;100.00
63281;BME280;49406;51.044;3.766;2023-12-22T05:34:29;100841.56;;;10.79;100.00
63281;BME280;49406;51.044;3.766;2023-12-22T05:37:04;100850.46;;;10.76;100.00
63281;BME280;49406;51.044;3.766;2023-12-22T05:39:39;100851.53;;;10.80;100.00
63281;BME280;49406;51.044;3.766;2023-12-22T05:42:13;100844.21;;;10.84;100.00
63281;BME280;49406;51.044;3.766;2023-12-22T05:44:48;100840.36;;;10.82;100.00
63281;BME280;49406;51.044;3.766;2023-12-22T05:47:23;100838.58;;;10.77;100.00
63281;BME280;49406;51.044;3.766;2023-12-22T05:49:58;100842.52;;;10.69;100.00
63281;BME280;49406;51.044;3.766;2023-12-22T05:52:32;100845.36;;;10.74;100.00
63281;BME280;49406;51.044;3.766;2023-12-22T05:55:08;100845.35;;;10.74;100.00
63281;BME280;49406;51.044;3.766;2023-12-22T05:57:43;100844.11;;;10.71;100.00
63281;BME280;49406;51.044;3.766;2023-12-22T06:00:18;100848.79;;;10.63;100.00
63281;BME280;49406;51.044;3.766;2023-12-22T06:02:53;100839.63;;;10.57;100.00
63281;BME280;49406;51.044;3.766;2023-12-22T06:05:27;100828.95;;;10.56;100.00
63281;BME280;49406;51.044;3.766;2023-12-22T06:08:02;100831.04;;;10.54;100.00
63281;BME280;49406;51.044;3.766;2023-12-22T06:10:38;100829.80;;;10.51;100.00
63281;BME280;49406;51.044;3.766;2023-12-22T06:13:13;100827.50;;;10.47;100.00
63281;BME280;49406;51.044;3.766;2023-12-22T06:15:48;100822.06;;;10.43;100.00
63281;BME280;49406;51.044;3.766;2023-12-22T06:18:23;100827.42;;;10.38;100.00
63281;BME280;49406;51.044;3.766;2023-12-22T06:20:57;100827.16;;;10.29;100.00
63281;BME280;49406;51.044;3.766;2023-12-22T06:23:32;100820.69;;;10.26;100.00
63281;BME280;49406;51.044;3.766;2023-12-22T06:26:08;100829.60;;;10.27;100.00
63281;BME280;49406;51.044;3.766;2023-12-22T06:28:44;100827.64;;;10.24;100.00
63281;BME280;49406;51.044;3.766;2023-12-22T06:31:20;100830.86;;;10.17;100.00
63281;BME280;49406;51.044;3.766;2023-12-22T06:33:54;100821.60;;;10.18;100.00
63281;BME280;49406;51.044;3.766;2023-12-22T06:36:34;100820.19;;;10.16;100.00
63281;BME280;49406;51.044;3.766;2023-12-22T06:39:08;100827.36;;;10.16;100.00
63281;BME280;49406;51.044;3.766;2023-12-22T06:41:43;100828.94;;;10.18;100.00
63281;BME280;49406;51.044;3.766;2023-12-22T06:44:17;100832.71;;;10.25;100.00
63281;BME280;49406;51.044;3.766;2023-12-22T06:46:52;100837.60;;;10.25;100.00
63281;BME280;49406;51.044;3.766;2023-12-22T06:49:26;100839.89;;;10.27;100.00
63281;BME280;49406;51.044;3.766;2023-12-22T06:52:01;100837.16;;;10.34;100.00
63281;BME280;49406;51.044;3.766;2023-12-22T06:54:35;100842.09;;;10.38;100.00
63281;BME280;49406;51.044;3.766;2023-12-22T06:57:10;100843.74;;;10.45;100.00
63281;BME280;49406;51.044;3.766;2023-12-22T06:59:45;100835.89;;;10.47;100.00
63281;BME280;49406;51.044;3.766;2023-12-22T07:02:20;100834.31;;;10.47;100.00
63281;BME280;49406;51.044;3.766;2023-12-22T07:05:35;100828.05;;;10.51;100.00
63281;BME280;49406;51.044;3.766;2023-12-22T07:08:11;100824.22;;;10.53;100.00
63281;BME280;49406;51.044;3.766;2023-12-22T07:10:46;100813.91;;;10.55;100.00
63281;BME280;49406;51.044;3.766;2023-12-22T07:13:20;100807.09;;;10.54;100.00
63281;BME280;49406;51.044;3.766;2023-12-22T07:15:55;100805.17;;;10.53;100.00
63281;BME280;49406;51.044;3.766;2023-12-22T07:18:29;100801.65;;;10.51;100.00
63281;BME280;49406;51.044;3.766;2023-12-22T07:21:05;100811.98;;;10.52;100.00
63281;BME280;49406;51.044;3.766;2023-12-22T07:23:39;100811.98;;;10.52;100.00
63281;BME280;49406;51.044;3.766;2023-12-22T07:26:17;100799.89;;;10.48;100.00
63281;BME280;49406;51.044;3.766;2023-12-22T07:28:51;100810.56;;;10.50;100.00
63281;BME280;49406;51.044;3.766;2023-12-22T07:31:26;100821.95;;;10.53;100.00
63281;BME280;49406;51.044;3.766;2023-12-22T07:34:01;100818.27;;;10.55;100.00
63281;BME280;49406;51.044;3.766;2023-12-22T07:36:36;100809.02;;;10.55;100.00
63281;BME280;49406;51.044;3.766;2023-12-22T07:39:09;100802.73;;;10.53;100.00
63281;BME280;49406;51.044;3.766;2023-12-22T07:41:44;100802.04;;;10.57;100.00
63281;BME280;49406;51.044;3.766;2023-12-22T07:44:18;100801.33;;;10.53;100.00
63281;BME280;49406;51.044;3.766;2023-12-22T07:46:59;100811.30;;;10.57;100.00
63281;BME280;49406;51.044;3.766;2023-12-22T07:49:33;100802.02;;;10.52;100.00
63281;BME280;49406;51.044;3.766;2023-12-22T07:52:08;100806.38;;;10.52;100.00
63281;BME280;49406;51.044;3.766;2023-12-22T07:54:43;100807.95;;;10.51;100.00
63281;BME280;49406;51.044;3.766;2023-12-22T07:57:18;100807.23;;;10.49;100.00
63281;BME280;49406;51.044;3.766;2023-12-22T07:59:53;100817.54;;;10.46;100.00
63281;BME280;49406;51.044;3.766;2023-12-22T08:02:27;100814.20;;;10.44;100.00
63281;BME280;49406;51.044;3.766;2023-12-22T08:05:02;100815.24;;;10.44;100.00
63281;BME280;49406;51.044;3.766;2023-12-22T08:07:38;100809.25;;;10.40;100.00
63281;BME280;49406;51.044;3.766;2023-12-22T08:10:12;100804.18;;;10.39;100.00
63281;BME280;49406;51.044;3.766;2023-12-22T08:12:47;100814.38;;;10.42;100.00
63281;BME280;49406;51.044;3.766;2023-12-22T08:15:22;100809.33;;;10.47;100.00
63281;BME280;49406;51.044;3.766;2023-12-22T08:17:56;100820.86;;;10.47;100.00
63281;BME280;49406;51.044;3.766;2023-12-22T08:20:31;100820.88;;;10.51;100.00
63281;BME280;49406;51.044;3.766;2023-12-22T08:23:05;100821.81;;;10.57;100.00
63281;BME280;49406;51.044;3.766;2023-12-22T08:25:40;100826.91;;;10.61;100.00
63281;BME280;49406;51.044;3.766;2023-12-22T08:28:15;100824.16;;;10.68;100.00
63281;BME280;49406;51.044;3.766;2023-12-22T08:30:49;100819.98;;;10.70;100.00
63281;BME280;49406;51.044;3.766;2023-12-22T08:33:24;100816.85;;;10.73;100.00
63281;BME280;49406;51.044;3.766;2023-12-22T08:35:58;100813.54;;;10.75;100.00
63281;BME280;49406;51.044;3.766;2023-12-22T08:38:33;100823.56;;;10.82;100.00
63281;BME280;49406;51.044;3.766;2023-12-22T08:41:08;100824.98;;;10.87;100.00
63281;BME280;49406;51.044;3.766;2023-12-22T08:43:44;100824.15;;;10.92;100.00
63281;BME280;49406;51.044;3.766;2023-12-22T08:46:18;100827.68;;;10.94;100.00
63281;BME280;49406;51.044;3.766;2023-12-22T08:48:53;100826.48;;;11.00;100.00
63281;BME280;49406;51.044;3.766;2023-12-22T08:51:28;100831.20;;;11.01;100.00
63281;BME280;49406;51.044;3.766;2023-12-22T08:54:03;100827.73;;;11.06;100.00
63281;BME280;49406;51.044;3.766;2023-12-22T08:56:38;100825.14;;;11.10;100.00
63281;BME280;49406;51.044;3.766;2023-12-22T08:59:16;100821.33;;;11.14;100.00
63281;BME280;49406;51.044;3.766;2023-12-22T09:01:49;100812.37;;;11.08;100.00
63281;BME280;49406;51.044;3.766;2023-12-22T09:04:23;100817.65;;;11.14;100.00
63281;BME280;49406;51.044;3.766;2023-12-22T09:06:58;100823.41;;;11.13;100.00
63281;BME280;49406;51.044;3.766;2023-12-22T09:09:33;100825.19;;;11.19;100.00
63281;BME280;49406;51.044;3.766;2023-12-22T09:12:08;100816.77;;;11.18;100.00
63281;BME280;49406;51.044;3.766;2023-12-22T09:14:42;100822.40;;;11.23;100.00
63281;BME280;49406;51.044;3.766;2023-12-22T09:17:17;100818.78;;;11.30;100.00
63281;BME280;49406;51.044;3.766;2023-12-22T09:19:52;100839.45;;;11.38;100.00
63281;BME280;49406;51.044;3.766;2023-12-22T09:22:26;100838.81;;;11.45;100.00
63281;BME280;49406;51.044;3.766;2023-12-22T09:25:01;100837.23;;;11.50;100.00
63281;BME280;49406;51.044;3.766;2023-12-22T09:27:36;100832.36;;;11.56;100.00
63281;BME280;49406;51.044;3.766;2023-12-22T09:30:12;100823.98;;;11.59;100.00
63281;BME280;49406;51.044;3.766;2023-12-22T09:32:47;100823.64;;;11.63;100.00
63281;BME280;49406;51.044;3.766;2023-12-22T09:35:22;100816.13;;;11.69;100.00
63281;BME280;49406;51.044;3.766;2023-12-22T09:37:58;100817.17;;;11.71;100.00
63281;BME280;49406;51.044;3.766;2023-12-22T09:40:33;100831.94;;;11.77;100.00
63281;BME280;49406;51.044;3.766;2023-12-22T09:43:10;100847.02;;;11.83;100.00
63281;BME280;49406;51.044;3.766;2023-12-22T09:45:49;100844.77;;;11.87;100.00
63281;BME280;49406;51.044;3.766;2023-12-22T09:48:24;100835.65;;;11.91;100.00
63281;BME280;49406;51.044;3.766;2023-12-22T09:51:01;100828.67;;;11.96;100.00
63281;BME280;49406;51.044;3.766;2023-12-22T09:53:37;100831.83;;;11.98;100.00
63281;BME280;49406;51.044;3.766;2023-12-22T09:56:13;100849.36;;;12.02;100.00
63281;BME280;49406;51.044;3.766;2023-12-22T09:58:48;100845.85;;;11.99;100.00
63281;BME280;49406;51.044;3.766;2023-12-22T10:01:24;100849.52;;;11.97;100.00
63281;BME280;49406;51.044;3.766;2023-12-22T10:04:00;100857.93;;;11.97;100.00
63281;BME280;49406;51.044;3.766;2023-12-22T10:06:34;100860.23;;;12.02;100.00
63281;BME280;49406;51.044;3.766;2023-12-22T10:09:10;100854.97;;;11.99;100.00
63281;BME280;49406;51.044;3.766;2023-12-22T10:11:49;100854.44;;;11.99;100.00
63281;BME280;49406;51.044;3.766;2023-12-22T10:14:27;100862.68;;;12.06;100.00
63281;BME280;49406;51.044;3.766;2023-12-22T10:17:03;100857.42;;;12.06;100.00
63281;BME280;49406;51.044;3.766;2023-12-22T10:19:39;100848.13;;;12.07;100.00
63281;BME280;49406;51.044;3.766;2023-12-22T10:22:13;100859.34;;;12.05;100.00
63281;BME280;49406;51.044;3.766;2023-12-22T10:24:48;100865.84;;;12.08;100.00
63281;BME280;49406;51.044;3.766;2023-12-22T10:27:23;100858.83;;;12.09;100.00
63281;BME280;49406;51.044;3.766;2023-12-22T10:29:58;100854.98;;;12.11;100.00
63281;BME280;49406;51.044;3.766;2023-12-22T10:32:32;100855.31;;;12.03;100.00
63281;BME280;49406;51.044;3.766;2023-12-22T10:35:08;100850.23;;;11.96;100.00
63281;BME280;49406;51.044;3.766;2023-12-22T10:37:43;100861.95;;;11.92;100.00
63281;BME280;49406;51.044;3.766;2023-12-22T10:40:20;100859.28;;;11.83;100.00
63281;BME280;49406;51.044;3.766;2023-12-22T10:42:54;100861.58;;;11.85;100.00
63281;BME280;49406;51.044;3.766;2023-12-22T10:45:30;100859.46;;;11.80;100.00
63281;BME280;49406;51.044;3.766;2023-12-22T10:48:06;100857.19;;;11.80;100.00
63281;BME280;49406;51.044;3.766;2023-12-22T10:50:42;100864.71;;;11.79;100.00
63281;BME280;49406;51.044;3.766;2023-12-22T10:53:17;100848.77;;;11.82;100.00
63281;BME280;49406;51.044;3.766;2023-12-22T10:55:54;100861.58;;;11.86;100.00
63281;BME280;49406;51.044;3.766;2023-12-22T10:58:30;100863.33;;;11.89;100.00
63281;BME280;49406;51.044;3.766;2023-12-22T11:01:05;100861.62;;;11.95;100.00
63281;BME280;49406;51.044;3.766;2023-12-22T11:03:42;100864.42;;;12.04;100.00
63281;BME280;49406;51.044;3.766;2023-12-22T11:06:16;100866.19;;;12.06;100.00
63281;BME280;49406;51.044;3.766;2023-12-22T11:08:52;100860.23;;;12.07;100.00
63281;BME280;49406;51.044;3.766;2023-12-22T11:11:30;100850.27;;;12.14;100.00
63281;BME280;49406;51.044;3.766;2023-12-22T11:14:03;100853.25;;;12.18;100.00
63281;BME280;49406;51.044;3.766;2023-12-22T11:16:38;100847.11;;;12.19;100.00
63281;BME280;49406;51.044;3.766;2023-12-22T11:19:20;100851.50;;;12.18;100.00
63281;BME280;49406;51.044;3.766;2023-12-22T11:21:57;100850.79;;;12.21;100.00
63281;BME280;49406;51.044;3.766;2023-12-22T11:24:33;100856.60;;;12.29;100.00
63281;BME280;49406;51.044;3.766;2023-12-22T11:27:10;100848.02;;;12.33;100.00
63281;BME280;49406;51.044;3.766;2023-12-22T11:29:47;100848.19;;;12.33;100.00
63281;BME280;49406;51.044;3.766;2023-12-22T11:32:22;100845.38;;;12.34;100.00
63281;BME280;49406;51.044;3.766;2023-12-22T11:34:58;100838.20;;;12.35;100.00
63281;BME280;49406;51.044;3.766;2023-12-22T11:37:34;100804.88;;;12.37;100.00
63281;BME280;49406;51.044;3.766;2023-12-22T11:40:10;100831.19;;;12.42;100.00
63281;BME280;49406;51.044;3.766;2023-12-22T11:42:47;100847.69;;;12.46;100.00
63281;BME280;49406;51.044;3.766;2023-12-22T11:45:23;100849.08;;;12.50;100.00
63281;BME280;49406;51.044;3.766;2023-12-22T11:47:58;100848.20;;;12.52;100.00
63281;BME280;49406;51.044;3.766;2023-12-22T11:50:39;100857.13;;;12.57;100.00
63281;BME280;49406;51.044;3.766;2023-12-22T11:53:24;100844.34;;;12.56;100.00
63281;BME280;49406;51.044;3.766;2023-12-22T11:56:00;100835.21;;;12.57;100.00
63281;BME280;49406;51.044;3.766;2023-12-22T11:58:37;100845.58;;;12.65;100.00
63281;BME280;49406;51.044;3.766;2023-12-22T12:01:13;100841.38;;;12.66;100.00
63281;BME280;49406;51.044;3.766;2023-12-22T12:03:52;100841.36;;;12.66;100.00
63281;BME280;49406;51.044;3.766;2023-12-22T12:06:37;100844.87;;;12.65;100.00
63281;BME280;49406;51.044;3.766;2023-12-22T12:09:12;100845.39;;;12.68;100.00
63281;BME280;49406;51.044;3.766;2023-12-22T12:14:42;100845.06;;;12.61;100.00
63281;BME280;49406;51.044;3.766;2023-12-22T12:17:18;100852.05;;;12.59;100.00
63281;BME280;49406;51.044;3.766;2023-12-22T12:19:53;100822.42;;;12.51;100.00
63281;BME280;49406;51.044;3.766;2023-12-22T12:22:29;100838.20;;;12.53;100.00
63281;BME280;49406;51.044;3.766;2023-12-22T12:25:05;100842.94;;;12.54;100.00
63281;BME280;49406;51.044;3.766;2023-12-22T12:27:41;100837.33;;;12.47;100.00
63281;BME280;49406;51.044;3.766;2023-12-22T12:30:16;100828.89;;;12.40;100.00
63281;BME280;49406;51.044;3.766;2023-12-22T12:32:51;100831.36;;;12.35;100.00
63281;BME280;49406;51.044;3.766;2023-12-22T12:35:26;100818.38;;;12.35;100.00
63281;BME280;49406;51.044;3.766;2023-12-22T12:38:04;100828.73;;;12.36;100.00
63281;BME280;49406;51.044;3.766;2023-12-22T12:40:40;100838.38;;;12.43;100.00
63281;BME280;49406;51.044;3.766;2023-12-22T12:43:15;100831.52;;;12.41;100.00
63281;BME280;49406;51.044;3.766;2023-12-22T12:45:49;100827.16;;;12.45;100.00
63281;BME280;49406;51.044;3.766;2023-12-22T12:48:26;100842.94;;;12.54;100.00
63281;BME280;49406;51.044;3.766;2023-12-22T12:51:04;100835.75;;;12.50;100.00
63281;BME280;49406;51.044;3.766;2023-12-22T12:53:39;100836.28;;;12.46;100.00
63281;BME280;49406;51.044;3.766;2023-12-22T12:56:14;100839.08;;;12.52;100.00
63281;BME280;49406;51.044;3.766;2023-12-22T12:58:48;100830.14;;;12.49;100.00
63281;BME280;49406;51.044;3.766;2023-12-22T13:01:23;100838.90;;;12.51;100.00
63281;BME280;49406;51.044;3.766;2023-12-22T13:03:57;100845.05;;;12.52;100.00
63281;BME280;49406;51.044;3.766;2023-12-22T13:06:32;100843.65;;;12.60;100.00
63281;BME280;49406;51.044;3.766;2023-12-22T13:09:07;100832.95;;;12.65;100.00
63281;BME280;49406;51.044;3.766;2023-12-22T13:11:42;100836.45;;;12.59;100.00
63281;BME280;49406;51.044;3.766;2023-12-22T13:14:24;100849.61;;;12.61;100.00
63281;BME280;49406;51.044;3.766;2023-12-22T13:17:00;100840.30;;;12.60;100.00
63281;BME280;49406;51.044;3.766;2023-12-22T13:19:34;100842.59;;;12.63;100.00
63281;BME280;49406;51.044;3.766;2023-12-22T13:22:09;100829.98;;;12.62;100.00
63281;BME280;49406;51.044;3.766;2023-12-22T13:24:56;100824.34;;;12.55;100.00